sensor_id;sensor_type;location;lat;lon;timestamp;temperature;humidity
15819;DHT22;8010;53.986;12.106;2022-08-11T00:02:33;14.70;99.90
15819;DHT22;8010;53.986;12.106;2022-08-11T00:05:10;14.70;99.90
15819;DHT22;8010;53.986;12.106;2022-08-11T00:07:45;14.60;99.90
15819;DHT22;8010;53.986;12.106;2022-08-11T00:10:17;14.60;99.90
15819;DHT22;8010;53.986;12.106;2022-08-11T00:12:45;14.60;99.90
15819;DHT22;8010;53.986;12.106;2022-08-11T00:15:14;14.60;99.90
15819;DHT22;8010;53.986;12.106;2022-08-11T00:17:40;14.60;99.90
15819;DHT22;8010;53.986;12.106;2022-08-11T00:20:09;14.50;99.90
15819;DHT22;8010;53.986;12.106;2022-08-11T00:22:38;14.50;99.90
15819;DHT22;8010;53.986;12.106;2022-08-11T00:25:18;14.40;99.90
15819;DHT22;8010;53.986;12.106;2022-08-11T00:27:46;14.40;99.90
15819;DHT22;8010;53.986;12.106;2022-08-11T00:30:12;14.30;99.90
15819;DHT22;8010;53.986;12.106;2022-08-11T00:32:41;14.30;99.90
15819;DHT22;8010;53.986;12.106;2022-08-11T00:35:12;14.20;99.90
15819;DHT22;8010;53.986;12.106;2022-08-11T00:37:39;14.20;99.90
15819;DHT22;8010;53.986;12.106;2022-08-11T00:40:21;14.10;99.90
15819;DHT22;8010;53.986;12.106;2022-08-11T00:43:12;14.00;99.90
15819;DHT22;8010;53.986;12.106;2022-08-11T00:45:42;14.00;99.90
15819;DHT22;8010;53.986;12.106;2022-08-11T00:48:24;14.00;99.90
15819;DHT22;8010;53.986;12.106;2022-08-11T00:54:07;13.90;99.90
15819;DHT22;8010;53.986;12.106;2022-08-11T00:57:10;13.80;99.90
15819;DHT22;8010;53.986;12.106;2022-08-11T01:08:09;13.70;99.90
15819;DHT22;8010;53.986;12.106;2022-08-11T01:16:32;13.70;99.90
15819;DHT22;8010;53.986;12.106;2022-08-11T01:22:14;13.60;99.90
15819;DHT22;8010;53.986;12.106;2022-08-11T01:25:05;13.50;99.90
15819;DHT22;8010;53.986;12.106;2022-08-11T01:36:34;13.50;99.90
15819;DHT22;8010;53.986;12.106;2022-08-11T01:45:20;13.40;99.90
15819;DHT22;8010;53.986;12.106;2022-08-11T01:54:08;13.30;99.90
15819;DHT22;8010;53.986;12.106;2022-08-11T01:59:23;13.20;99.90
15819;DHT22;8010;53.986;12.106;2022-08-11T02:12:54;13.00;99.90
15819;DHT22;8010;53.986;12.106;2022-08-11T02:15:34;13.00;99.90
15819;DHT22;8010;53.986;12.106;2022-08-11T02:18:27;12.90;99.90
15819;DHT22;8010;53.986;12.106;2022-08-11T02:21:22;12.90;99.90
15819;DHT22;8010;53.986;12.106;2022-08-11T02:24:16;12.90;99.90
15819;DHT22;8010;53.986;12.106;2022-08-11T02:26:47;12.90;99.90
15819;DHT22;8010;53.986;12.106;2022-08-11T02:30:05;12.90;99.90
15819;DHT22;8010;53.986;12.106;2022-08-11T02:32:46;12.90;99.90
15819;DHT22;8010;53.986;12.106;2022-08-11T02:35:45;12.90;99.90
15819;DHT22;8010;53.986;12.106;2022-08-11T02:38:36;12.80;99.90
15819;DHT22;8010;53.986;12.106;2022-08-11T02:44:47;12.70;99.90
15819;DHT22;8010;53.986;12.106;2022-08-11T02:56:57;12.70;99.90
15819;DHT22;8010;53.986;12.106;2022-08-11T02:59:44;12.60;99.90
15819;DHT22;8010;53.986;12.106;2022-08-11T03:08:14;12.60;99.90
15819;DHT22;8010;53.986;12.106;2022-08-11T03:10:59;12.60;99.90
15819;DHT22;8010;53.986;12.106;2022-08-11T03:16:59;12.50;99.90
15819;DHT22;8010;53.986;12.106;2022-08-11T03:20:05;12.50;99.90
15819;DHT22;8010;53.986;12.106;2022-08-11T03:22:56;12.40;99.90
15819;DHT22;8010;53.986;12.106;2022-08-11T03:25:37;12.40;99.90
15819;DHT22;8010;53.986;12.106;2022-08-11T03:33:37;12.30;99.90
15819;DHT22;8010;53.986;12.106;2022-08-11T03:36:35;12.30;99.90
15819;DHT22;8010;53.986;12.106;2022-08-11T03:42:10;12.30;99.90
15819;DHT22;8010;53.986;12.106;2022-08-11T03:45:05;12.30;99.90
15819;DHT22;8010;53.986;12.106;2022-08-11T03:47:44;12.20;99.90
15819;DHT22;8010;53.986;12.106;2022-08-11T03:58:33;12.20;99.90
15819;DHT22;8010;53.986;12.106;2022-08-11T04:09:46;12.20;99.90
15819;DHT22;8010;53.986;12.106;2022-08-11T04:12:45;12.20;99.90
15819;DHT22;8010;53.986;12.106;2022-08-11T04:15:52;12.20;99.90
15819;DHT22;8010;53.986;12.106;2022-08-11T04:21:08;12.30;99.90
15819;DHT22;8010;53.986;12.106;2022-08-11T04:23:55;12.30;99.90
15819;DHT22;8010;53.986;12.106;2022-08-11T04:35:26;12.50;99.90
15819;DHT22;8010;53.986;12.106;2022-08-11T04:49:27;12.70;99.90
15819;DHT22;8010;53.986;12.106;2022-08-11T04:52:23;12.70;99.90
15819;DHT22;8010;53.986;12.106;2022-08-11T04:58:41;12.80;99.90
15819;DHT22;8010;53.986;12.106;2022-08-11T05:13:43;13.30;99.90
15819;DHT22;8010;53.986;12.106;2022-08-11T05:16:31;13.40;99.90
15819;DHT22;8010;53.986;12.106;2022-08-11T05:19:18;13.50;99.90
15819;DHT22;8010;53.986;12.106;2022-08-11T05:22:07;13.60;99.90
15819;DHT22;8010;53.986;12.106;2022-08-11T05:25:00;13.70;99.90
15819;DHT22;8010;53.986;12.106;2022-08-11T05:28:02;13.80;99.90
15819;DHT22;8010;53.986;12.106;2022-08-11T05:30:52;13.90;99.90
15819;DHT22;8010;53.986;12.106;2022-08-11T05:33:49;14.00;99.90
15819;DHT22;8010;53.986;12.106;2022-08-11T05:36:45;14.20;99.90
15819;DHT22;8010;53.986;12.106;2022-08-11T05:39:15;14.30;99.90
15819;DHT22;8010;53.986;12.106;2022-08-11T05:42:01;14.40;99.90
15819;DHT22;8010;53.986;12.106;2022-08-11T05:44:49;14.60;99.90
15819;DHT22;8010;53.986;12.106;2022-08-11T05:47:34;14.70;99.90
15819;DHT22;8010;53.986;12.106;2022-08-11T05:50:20;14.80;99.90
15819;DHT22;8010;53.986;12.106;2022-08-11T05:53:09;15.00;99.90
15819;DHT22;8010;53.986;12.106;2022-08-11T05:55:56;15.20;99.90
15819;DHT22;8010;53.986;12.106;2022-08-11T05:58:49;15.30;99.90
15819;DHT22;8010;53.986;12.106;2022-08-11T06:01:41;15.40;99.90
15819;DHT22;8010;53.986;12.106;2022-08-11T06:04:20;15.60;99.90
15819;DHT22;8010;53.986;12.106;2022-08-11T06:06:53;15.70;99.90
15819;DHT22;8010;53.986;12.106;2022-08-11T06:09:25;15.90;99.90
15819;DHT22;8010;53.986;12.106;2022-08-11T06:11:52;16.00;99.90
15819;DHT22;8010;53.986;12.106;2022-08-11T06:14:19;16.10;99.90
15819;DHT22;8010;53.986;12.106;2022-08-11T06:16:48;16.30;99.90
15819;DHT22;8010;53.986;12.106;2022-08-11T06:19:15;16.40;99.90
15819;DHT22;8010;53.986;12.106;2022-08-11T06:21:45;16.60;99.90
15819;DHT22;8010;53.986;12.106;2022-08-11T06:24:13;16.80;99.90
15819;DHT22;8010;53.986;12.106;2022-08-11T06:26:47;16.90;99.90
15819;DHT22;8010;53.986;12.106;2022-08-11T06:29:14;17.10;99.90
15819;DHT22;8010;53.986;12.106;2022-08-11T06:31:51;17.30;99.90
15819;DHT22;8010;53.986;12.106;2022-08-11T06:34:37;17.50;99.90
15819;DHT22;8010;53.986;12.106;2022-08-11T06:37:26;17.70;99.90
15819;DHT22;8010;53.986;12.106;2022-08-11T06:40:07;17.90;99.90
15819;DHT22;8010;53.986;12.106;2022-08-11T06:47:46;18.40;99.90
15819;DHT22;8010;53.986;12.106;2022-08-11T06:50:20;18.60;99.90
15819;DHT22;8010;53.986;12.106;2022-08-11T06:53:06;18.80;99.90
15819;DHT22;8010;53.986;12.106;2022-08-11T06:55:35;19.00;99.90
15819;DHT22;8010;53.986;12.106;2022-08-11T06:58:23;19.10;99.90
15819;DHT22;8010;53.986;12.106;2022-08-11T07:01:12;19.30;99.90
15819;DHT22;8010;53.986;12.106;2022-08-11T07:03:44;19.50;99.90
15819;DHT22;8010;53.986;12.106;2022-08-11T07:12:36;20.10;99.90
15819;DHT22;8010;53.986;12.106;2022-08-11T07:15:27;20.30;99.90
15819;DHT22;8010;53.986;12.106;2022-08-11T07:18:11;20.50;99.90
15819;DHT22;8010;53.986;12.106;2022-08-11T07:21:26;20.60;99.90
15819;DHT22;8010;53.986;12.106;2022-08-11T07:24:22;20.80;99.90
15819;DHT22;8010;53.986;12.106;2022-08-11T07:27:13;21.00;99.90
15819;DHT22;8010;53.986;12.106;2022-08-11T07:30:00;21.20;99.90
15819;DHT22;8010;53.986;12.106;2022-08-11T07:32:30;21.40;99.90
15819;DHT22;8010;53.986;12.106;2022-08-11T07:35:11;21.60;99.90
15819;DHT22;8010;53.986;12.106;2022-08-11T07:37:41;21.70;99.90
15819;DHT22;8010;53.986;12.106;2022-08-11T07:40:08;21.90;99.90
15819;DHT22;8010;53.986;12.106;2022-08-11T07:42:34;22.10;99.90
15819;DHT22;8010;53.986;12.106;2022-08-11T07:45:03;22.20;99.90
15819;DHT22;8010;53.986;12.106;2022-08-11T07:47:48;22.40;99.90
15819;DHT22;8010;53.986;12.106;2022-08-11T07:50:34;22.60;99.90
15819;DHT22;8010;53.986;12.106;2022-08-11T07:53:20;22.70;99.90
15819;DHT22;8010;53.986;12.106;2022-08-11T07:55:47;22.90;99.90
15819;DHT22;8010;53.986;12.106;2022-08-11T07:58:14;23.00;99.90
15819;DHT22;8010;53.986;12.106;2022-08-11T08:00:59;23.30;99.90
15819;DHT22;8010;53.986;12.106;2022-08-11T08:03:44;23.50;99.90
15819;DHT22;8010;53.986;12.106;2022-08-11T08:06:31;23.70;99.90
15819;DHT22;8010;53.986;12.106;2022-08-11T08:09:20;23.90;99.90
15819;DHT22;8010;53.986;12.106;2022-08-11T08:12:05;24.00;99.90
15819;DHT22;8010;53.986;12.106;2022-08-11T08:14:52;24.30;99.90
15819;DHT22;8010;53.986;12.106;2022-08-11T08:17:37;24.50;99.90
15819;DHT22;8010;53.986;12.106;2022-08-11T08:20:23;24.60;99.90
15819;DHT22;8010;53.986;12.106;2022-08-11T08:22:50;24.80;99.90
15819;DHT22;8010;53.986;12.106;2022-08-11T08:25:26;25.00;99.90
15819;DHT22;8010;53.986;12.106;2022-08-11T08:27:53;25.10;99.90
15819;DHT22;8010;53.986;12.106;2022-08-11T08:30:21;25.40;99.90
15819;DHT22;8010;53.986;12.106;2022-08-11T08:33:05;25.50;99.90
15819;DHT22;8010;53.986;12.106;2022-08-11T08:35:33;25.70;99.90
15819;DHT22;8010;53.986;12.106;2022-08-11T08:37:59;25.90;99.90
15819;DHT22;8010;53.986;12.106;2022-08-11T08:40:26;26.10;99.90
15819;DHT22;8010;53.986;12.106;2022-08-11T08:42:56;26.10;99.90
15819;DHT22;8010;53.986;12.106;2022-08-11T08:45:23;26.40;99.90
15819;DHT22;8010;53.986;12.106;2022-08-11T08:48:14;26.50;99.90
15819;DHT22;8010;53.986;12.106;2022-08-11T08:50:51;26.70;99.90
15819;DHT22;8010;53.986;12.106;2022-08-11T08:53:40;26.80;99.90
15819;DHT22;8010;53.986;12.106;2022-08-11T08:56:09;27.00;99.90
15819;DHT22;8010;53.986;12.106;2022-08-11T08:58:37;27.10;99.90
15819;DHT22;8010;53.986;12.106;2022-08-11T09:01:03;27.20;99.90
15819;DHT22;8010;53.986;12.106;2022-08-11T09:03:30;27.40;99.90
15819;DHT22;8010;53.986;12.106;2022-08-11T09:05:56;27.70;99.90
15819;DHT22;8010;53.986;12.106;2022-08-11T09:08:23;27.80;99.90
15819;DHT22;8010;53.986;12.106;2022-08-11T09:10:49;28.00;99.90
15819;DHT22;8010;53.986;12.106;2022-08-11T09:13:35;28.00;99.90
15819;DHT22;8010;53.986;12.106;2022-08-11T09:16:04;28.10;99.90
15819;DHT22;8010;53.986;12.106;2022-08-11T09:18:32;28.20;99.90
15819;DHT22;8010;53.986;12.106;2022-08-11T09:20:58;28.40;99.90
15819;DHT22;8010;53.986;12.106;2022-08-11T09:23:26;28.50;99.90
15819;DHT22;8010;53.986;12.106;2022-08-11T09:26:11;28.60;99.90
15819;DHT22;8010;53.986;12.106;2022-08-11T09:28:56;28.80;99.90
15819;DHT22;8010;53.986;12.106;2022-08-11T09:31:23;28.90;99.90
15819;DHT22;8010;53.986;12.106;2022-08-11T09:33:53;29.00;99.90
15819;DHT22;8010;53.986;12.106;2022-08-11T09:36:19;29.20;99.90
15819;DHT22;8010;53.986;12.106;2022-08-11T09:39:04;29.20;99.90
15819;DHT22;8010;53.986;12.106;2022-08-11T09:41:49;29.30;99.90
15819;DHT22;8010;53.986;12.106;2022-08-11T09:44:15;29.40;99.90
15819;DHT22;8010;53.986;12.106;2022-08-11T09:46:59;29.50;99.90
15819;DHT22;8010;53.986;12.106;2022-08-11T09:49:26;29.60;99.00
15819;DHT22;8010;53.986;12.106;2022-08-11T09:51:53;29.70;97.70
15819;DHT22;8010;53.986;12.106;2022-08-11T09:54:19;29.90;99.90
15819;DHT22;8010;53.986;12.106;2022-08-11T09:56:47;29.90;99.30
15819;DHT22;8010;53.986;12.106;2022-08-11T09:59:31;30.10;99.70
15819;DHT22;8010;53.986;12.106;2022-08-11T10:02:00;30.20;98.80
15819;DHT22;8010;53.986;12.106;2022-08-11T10:04:39;30.40;96.80
15819;DHT22;8010;53.986;12.106;2022-08-11T10:07:06;30.50;95.20
15819;DHT22;8010;53.986;12.106;2022-08-11T10:09:44;30.50;97.40
15819;DHT22;8010;53.986;12.106;2022-08-11T10:12:15;30.60;97.40
15819;DHT22;8010;53.986;12.106;2022-08-11T10:14:44;30.50;96.40
15819;DHT22;8010;53.986;12.106;2022-08-11T10:17:35;30.60;96.80
15819;DHT22;8010;53.986;12.106;2022-08-11T10:20:01;30.80;95.20
15819;DHT22;8010;53.986;12.106;2022-08-11T10:22:33;30.80;94.90
15819;DHT22;8010;53.986;12.106;2022-08-11T10:25:19;30.90;96.10
15819;DHT22;8010;53.986;12.106;2022-08-11T10:28:07;30.90;95.10
15819;DHT22;8010;53.986;12.106;2022-08-11T10:30:32;31.00;94.70
15819;DHT22;8010;53.986;12.106;2022-08-11T10:33:18;31.10;96.10
15819;DHT22;8010;53.986;12.106;2022-08-11T10:36:03;31.00;93.90
15819;DHT22;8010;53.986;12.106;2022-08-11T10:38:30;31.30;96.30
15819;DHT22;8010;53.986;12.106;2022-08-11T10:40:56;31.50;95.60
15819;DHT22;8010;53.986;12.106;2022-08-11T10:43:41;31.70;94.60
15819;DHT22;8010;53.986;12.106;2022-08-11T10:46:09;31.80;92.80
15819;DHT22;8010;53.986;12.106;2022-08-11T10:48:55;31.90;91.90
15819;DHT22;8010;53.986;12.106;2022-08-11T10:51:23;31.90;92.70
15819;DHT22;8010;53.986;12.106;2022-08-11T10:54:08;32.00;91.00
15819;DHT22;8010;53.986;12.106;2022-08-11T10:56:55;32.00;91.40
15819;DHT22;8010;53.986;12.106;2022-08-11T10:59:40;32.00;92.00
15819;DHT22;8010;53.986;12.106;2022-08-11T11:02:10;32.00;91.30
15819;DHT22;8010;53.986;12.106;2022-08-11T11:05:06;33.30;92.10
15819;DHT22;8010;53.986;12.106;2022-08-11T11:07:56;32.20;92.50
15819;DHT22;8010;53.986;12.106;2022-08-11T11:10:25;32.30;90.40
15819;DHT22;8010;53.986;12.106;2022-08-11T11:12:54;32.40;92.40
15819;DHT22;8010;53.986;12.106;2022-08-11T11:15:43;32.50;90.40
15819;DHT22;8010;53.986;12.106;2022-08-11T11:18:31;32.50;90.00
15819;DHT22;8010;53.986;12.106;2022-08-11T11:21:06;32.50;90.70
15819;DHT22;8010;53.986;12.106;2022-08-11T11:23:41;32.50;90.90
15819;DHT22;8010;53.986;12.106;2022-08-11T11:29:25;32.60;90.10
15819;DHT22;8010;53.986;12.106;2022-08-11T11:32:13;32.60;88.90
15819;DHT22;8010;53.986;12.106;2022-08-11T11:35:16;32.80;90.40
15819;DHT22;8010;53.986;12.106;2022-08-11T11:37:48;32.90;87.20
15819;DHT22;8010;53.986;12.106;2022-08-11T11:40:17;33.20;87.50
15819;DHT22;8010;53.986;12.106;2022-08-11T11:42:49;33.30;89.80
15819;DHT22;8010;53.986;12.106;2022-08-11T11:45:17;33.40;88.10
15819;DHT22;8010;53.986;12.106;2022-08-11T11:47:44;33.40;90.60
15819;DHT22;8010;53.986;12.106;2022-08-11T11:50:10;33.40;90.40
15819;DHT22;8010;53.986;12.106;2022-08-11T11:52:38;33.40;90.60
15819;DHT22;8010;53.986;12.106;2022-08-11T11:55:05;33.60;90.10
15819;DHT22;8010;53.986;12.106;2022-08-11T11:57:32;33.60;88.10
15819;DHT22;8010;53.986;12.106;2022-08-11T12:00:18;33.70;89.30
15819;DHT22;8010;53.986;12.106;2022-08-11T12:03:06;33.90;89.90
15819;DHT22;8010;53.986;12.106;2022-08-11T12:05:34;34.10;89.50
15819;DHT22;8010;53.986;12.106;2022-08-11T12:08:01;34.10;87.20
15819;DHT22;8010;53.986;12.106;2022-08-11T12:10:44;34.00;90.60
15819;DHT22;8010;53.986;12.106;2022-08-11T12:13:10;33.90;90.30
15819;DHT22;8010;53.986;12.106;2022-08-11T12:15:56;34.10;91.50
15819;DHT22;8010;53.986;12.106;2022-08-11T12:18:25;34.10;89.00
15819;DHT22;8010;53.986;12.106;2022-08-11T12:20:51;34.30;87.60
15819;DHT22;8010;53.986;12.106;2022-08-11T12:23:16;34.50;87.80
15819;DHT22;8010;53.986;12.106;2022-08-11T12:26:01;34.60;91.80
15819;DHT22;8010;53.986;12.106;2022-08-11T12:28:46;34.60;91.00
15819;DHT22;8010;53.986;12.106;2022-08-11T12:31:12;34.50;90.30
15819;DHT22;8010;53.986;12.106;2022-08-11T12:33:38;34.40;90.80
15819;DHT22;8010;53.986;12.106;2022-08-11T12:36:07;34.40;91.20
15819;DHT22;8010;53.986;12.106;2022-08-11T12:38:34;34.60;91.00
15819;DHT22;8010;53.986;12.106;2022-08-11T12:41:01;34.70;90.50
15819;DHT22;8010;53.986;12.106;2022-08-11T12:43:46;34.70;90.90
15819;DHT22;8010;53.986;12.106;2022-08-11T12:46:32;34.80;90.70
15819;DHT22;8010;53.986;12.106;2022-08-11T12:49:04;35.00;89.30
15819;DHT22;8010;53.986;12.106;2022-08-11T12:51:53;34.80;90.80
15819;DHT22;8010;53.986;12.106;2022-08-11T12:57:27;34.60;91.50
15819;DHT22;8010;53.986;12.106;2022-08-11T13:00:13;34.60;91.90
15819;DHT22;8010;53.986;12.106;2022-08-11T13:02:58;34.60;91.60
15819;DHT22;8010;53.986;12.106;2022-08-11T13:05:43;34.40;91.70
15819;DHT22;8010;53.986;12.106;2022-08-11T13:08:09;34.30;92.10
15819;DHT22;8010;53.986;12.106;2022-08-11T13:10:36;34.20;92.10
15819;DHT22;8010;53.986;12.106;2022-08-11T13:13:21;35.10;92.20
15819;DHT22;8010;53.986;12.106;2022-08-11T13:15:48;34.00;91.70
15819;DHT22;8010;53.986;12.106;2022-08-11T13:18:15;34.00;92.50
15819;DHT22;8010;53.986;12.106;2022-08-11T13:20:42;33.80;92.30
15819;DHT22;8010;53.986;12.106;2022-08-11T13:23:09;33.80;92.80
15819;DHT22;8010;53.986;12.106;2022-08-11T13:25:38;34.00;93.00
15819;DHT22;8010;53.986;12.106;2022-08-11T13:28:04;34.00;91.50
15819;DHT22;8010;53.986;12.106;2022-08-11T13:30:31;34.00;91.80
15819;DHT22;8010;53.986;12.106;2022-08-11T13:33:16;34.10;92.80
15819;DHT22;8010;53.986;12.106;2022-08-11T13:35:44;34.10;92.80
15819;DHT22;8010;53.986;12.106;2022-08-11T13:38:11;34.00;92.80
15819;DHT22;8010;53.986;12.106;2022-08-11T13:40:39;34.00;93.10
15819;DHT22;8010;53.986;12.106;2022-08-11T13:43:05;34.10;93.70
15819;DHT22;8010;53.986;12.106;2022-08-11T13:45:32;34.10;92.80
15819;DHT22;8010;53.986;12.106;2022-08-11T13:47:59;34.20;92.80
15819;DHT22;8010;53.986;12.106;2022-08-11T13:50:25;34.20;93.80
15819;DHT22;8010;53.986;12.106;2022-08-11T13:53:13;34.30;94.20
15819;DHT22;8010;53.986;12.106;2022-08-11T13:55:40;34.10;93.80
15819;DHT22;8010;53.986;12.106;2022-08-11T13:58:09;33.90;94.00
15819;DHT22;8010;53.986;12.106;2022-08-11T14:00:35;33.60;93.60
15819;DHT22;8010;53.986;12.106;2022-08-11T14:03:01;33.50;94.30
15819;DHT22;8010;53.986;12.106;2022-08-11T14:05:33;33.50;94.20
15819;DHT22;8010;53.986;12.106;2022-08-11T14:08:06;33.60;94.50
15819;DHT22;8010;53.986;12.106;2022-08-11T14:10:32;33.60;94.70
15819;DHT22;8010;53.986;12.106;2022-08-11T14:13:02;33.70;94.00
15819;DHT22;8010;53.986;12.106;2022-08-11T14:15:51;33.90;93.90
15819;DHT22;8010;53.986;12.106;2022-08-11T14:18:19;33.90;95.00
15819;DHT22;8010;53.986;12.106;2022-08-11T14:20:51;33.90;94.60
15819;DHT22;8010;53.986;12.106;2022-08-11T14:23:53;34.00;94.50
15819;DHT22;8010;53.986;12.106;2022-08-11T14:26:24;34.10;93.20
15819;DHT22;8010;53.986;12.106;2022-08-11T14:29:00;34.30;94.10
15819;DHT22;8010;53.986;12.106;2022-08-11T14:31:28;34.50;92.80
15819;DHT22;8010;53.986;12.106;2022-08-11T14:33:56;34.40;92.50
15819;DHT22;8010;53.986;12.106;2022-08-11T14:36:23;34.30;93.30
15819;DHT22;8010;53.986;12.106;2022-08-11T14:38:49;34.40;93.30
15819;DHT22;8010;53.986;12.106;2022-08-11T14:41:16;34.40;93.20
15819;DHT22;8010;53.986;12.106;2022-08-11T14:44:01;34.60;93.60
15819;DHT22;8010;53.986;12.106;2022-08-11T14:46:46;34.60;93.00
15819;DHT22;8010;53.986;12.106;2022-08-11T14:49:35;34.70;91.20
15819;DHT22;8010;53.986;12.106;2022-08-11T14:52:03;34.70;92.00
15819;DHT22;8010;53.986;12.106;2022-08-11T14:54:30;34.70;92.40
15819;DHT22;8010;53.986;12.106;2022-08-11T14:57:19;34.70;92.70
15819;DHT22;8010;53.986;12.106;2022-08-11T14:59:46;34.60;92.40
15819;DHT22;8010;53.986;12.106;2022-08-11T15:02:13;34.60;92.50
15819;DHT22;8010;53.986;12.106;2022-08-11T15:04:59;34.30;92.30
15819;DHT22;8010;53.986;12.106;2022-08-11T15:07:25;34.10;92.50
15819;DHT22;8010;53.986;12.106;2022-08-11T15:10:06;34.00;92.60
15819;DHT22;8010;53.986;12.106;2022-08-11T15:12:33;33.80;93.00
15819;DHT22;8010;53.986;12.106;2022-08-11T15:15:00;33.70;92.50
15819;DHT22;8010;53.986;12.106;2022-08-11T15:17:45;33.50;92.90
15819;DHT22;8010;53.986;12.106;2022-08-11T15:20:15;33.40;93.00
15819;DHT22;8010;53.986;12.106;2022-08-11T15:23:00;33.40;93.80
15819;DHT22;8010;53.986;12.106;2022-08-11T15:25:59;33.40;93.20
15819;DHT22;8010;53.986;12.106;2022-08-11T15:28:27;33.50;93.90
15819;DHT22;8010;53.986;12.106;2022-08-11T15:31:13;33.40;92.90
15819;DHT22;8010;53.986;12.106;2022-08-11T15:33:56;33.00;93.50
15819;DHT22;8010;53.986;12.106;2022-08-11T15:36:42;32.90;93.70
15819;DHT22;8010;53.986;12.106;2022-08-11T15:39:35;32.70;93.70
15819;DHT22;8010;53.986;12.106;2022-08-11T15:42:07;32.80;93.80
15819;DHT22;8010;53.986;12.106;2022-08-11T15:44:56;32.80;93.40
15819;DHT22;8010;53.986;12.106;2022-08-11T15:47:49;32.80;93.80
15819;DHT22;8010;53.986;12.106;2022-08-11T15:50:27;32.70;93.80
15819;DHT22;8010;53.986;12.106;2022-08-11T15:53:11;32.60;93.70
15819;DHT22;8010;53.986;12.106;2022-08-11T15:55:42;32.70;93.50
15819;DHT22;8010;53.986;12.106;2022-08-11T15:58:11;32.70;93.00
15819;DHT22;8010;53.986;12.106;2022-08-11T16:00:56;32.80;93.60
15819;DHT22;8010;53.986;12.106;2022-08-11T16:03:48;32.60;93.30
15819;DHT22;8010;53.986;12.106;2022-08-11T16:06:39;32.50;92.80
15819;DHT22;8010;53.986;12.106;2022-08-11T16:09:07;32.50;93.60
15819;DHT22;8010;53.986;12.106;2022-08-11T16:11:34;32.50;93.70
15819;DHT22;8010;53.986;12.106;2022-08-11T16:14:02;32.50;93.60
15819;DHT22;8010;53.986;12.106;2022-08-11T16:17:10;32.40;93.70
15819;DHT22;8010;53.986;12.106;2022-08-11T16:19:39;32.40;94.70
15819;DHT22;8010;53.986;12.106;2022-08-11T16:22:08;32.40;94.00
15819;DHT22;8010;53.986;12.106;2022-08-11T16:24:39;32.30;93.80
15819;DHT22;8010;53.986;12.106;2022-08-11T16:27:09;32.30;94.30
15819;DHT22;8010;53.986;12.106;2022-08-11T16:29:40;32.10;93.30
15819;DHT22;8010;53.986;12.106;2022-08-11T16:32:10;32.10;93.40
15819;DHT22;8010;53.986;12.106;2022-08-11T16:34:48;31.80;92.60
15819;DHT22;8010;53.986;12.106;2022-08-11T16:37:34;31.60;93.90
15819;DHT22;8010;53.986;12.106;2022-08-11T16:40:20;31.40;93.60
15819;DHT22;8010;53.986;12.106;2022-08-11T16:42:48;31.20;94.30
15819;DHT22;8010;53.986;12.106;2022-08-11T16:45:32;31.10;94.40
15819;DHT22;8010;53.986;12.106;2022-08-11T16:48:20;30.80;93.30
15819;DHT22;8010;53.986;12.106;2022-08-11T16:50:45;30.60;94.30
15819;DHT22;8010;53.986;12.106;2022-08-11T16:53:12;30.60;93.20
15819;DHT22;8010;53.986;12.106;2022-08-11T16:55:39;30.20;93.80
15819;DHT22;8010;53.986;12.106;2022-08-11T16:58:06;30.00;94.40
15819;DHT22;8010;53.986;12.106;2022-08-11T17:00:51;29.80;95.20
15819;DHT22;8010;53.986;12.106;2022-08-11T17:03:17;29.60;93.30
15819;DHT22;8010;53.986;12.106;2022-08-11T17:06:04;29.50;93.60
15819;DHT22;8010;53.986;12.106;2022-08-11T17:08:52;29.30;93.60
15819;DHT22;8010;53.986;12.106;2022-08-11T17:11:41;29.10;94.60
15819;DHT22;8010;53.986;12.106;2022-08-11T17:17:09;28.80;94.80
15819;DHT22;8010;53.986;12.106;2022-08-11T17:19:40;28.60;94.90
15819;DHT22;8010;53.986;12.106;2022-08-11T17:22:08;28.50;94.80
15819;DHT22;8010;53.986;12.106;2022-08-11T17:24:54;28.40;95.40
15819;DHT22;8010;53.986;12.106;2022-08-11T17:27:22;28.30;95.80
15819;DHT22;8010;53.986;12.106;2022-08-11T17:29:54;28.30;95.00
15819;DHT22;8010;53.986;12.106;2022-08-11T17:32:25;28.10;95.10
15819;DHT22;8010;53.986;12.106;2022-08-11T17:35:19;28.00;95.30
15819;DHT22;8010;53.986;12.106;2022-08-11T17:40:33;27.80;96.10
15819;DHT22;8010;53.986;12.106;2022-08-11T17:43:01;27.70;96.30
15819;DHT22;8010;53.986;12.106;2022-08-11T17:45:46;27.60;95.20
15819;DHT22;8010;53.986;12.106;2022-08-11T17:48:34;27.50;95.80
15819;DHT22;8010;53.986;12.106;2022-08-11T17:51:09;27.40;96.00
15819;DHT22;8010;53.986;12.106;2022-08-11T17:53:42;27.20;96.50
15819;DHT22;8010;53.986;12.106;2022-08-11T17:56:30;27.10;96.10
15819;DHT22;8010;53.986;12.106;2022-08-11T17:59:14;27.00;97.50
15819;DHT22;8010;53.986;12.106;2022-08-11T18:02:02;27.00;97.10
15819;DHT22;8010;53.986;12.106;2022-08-11T18:04:49;26.80;96.90
15819;DHT22;8010;53.986;12.106;2022-08-11T18:07:17;26.70;96.50
15819;DHT22;8010;53.986;12.106;2022-08-11T18:10:06;26.50;98.00
15819;DHT22;8010;53.986;12.106;2022-08-11T18:12:52;26.40;98.70
15819;DHT22;8010;53.986;12.106;2022-08-11T18:15:39;26.20;98.70
15819;DHT22;8010;53.986;12.106;2022-08-11T18:18:23;26.00;98.40
15819;DHT22;8010;53.986;12.106;2022-08-11T18:21:10;25.80;99.80
15819;DHT22;8010;53.986;12.106;2022-08-11T18:24:02;25.70;99.60
15819;DHT22;8010;53.986;12.106;2022-08-11T18:26:47;25.60;99.90
15819;DHT22;8010;53.986;12.106;2022-08-11T18:29:33;25.50;99.90
15819;DHT22;8010;53.986;12.106;2022-08-11T18:32:22;25.30;99.90
15819;DHT22;8010;53.986;12.106;2022-08-11T18:35:09;25.00;99.90
15819;DHT22;8010;53.986;12.106;2022-08-11T18:37:55;24.80;99.90
15819;DHT22;8010;53.986;12.106;2022-08-11T18:40:43;24.60;99.90
15819;DHT22;8010;53.986;12.106;2022-08-11T18:43:28;24.30;99.90
15819;DHT22;8010;53.986;12.106;2022-08-11T18:46:17;24.20;99.90
15819;DHT22;8010;53.986;12.106;2022-08-11T18:49:07;24.10;99.90
15819;DHT22;8010;53.986;12.106;2022-08-11T18:51:54;24.00;99.90
15819;DHT22;8010;53.986;12.106;2022-08-11T18:54:40;23.90;99.90
15819;DHT22;8010;53.986;12.106;2022-08-11T18:57:26;23.70;99.90
15819;DHT22;8010;53.986;12.106;2022-08-11T19:00:10;24.50;99.90
15819;DHT22;8010;53.986;12.106;2022-08-11T19:02:56;23.50;99.90
15819;DHT22;8010;53.986;12.106;2022-08-11T19:05:41;23.30;99.90
15819;DHT22;8010;53.986;12.106;2022-08-11T19:08:30;23.20;99.90
15819;DHT22;8010;53.986;12.106;2022-08-11T19:11:17;23.00;99.90
15819;DHT22;8010;53.986;12.106;2022-08-11T19:14:03;22.90;99.90
15819;DHT22;8010;53.986;12.106;2022-08-11T19:16:48;22.80;99.90
15819;DHT22;8010;53.986;12.106;2022-08-11T19:19:35;22.80;99.90
15819;DHT22;8010;53.986;12.106;2022-08-11T19:22:21;22.80;99.90
15819;DHT22;8010;53.986;12.106;2022-08-11T19:25:06;22.70;99.90